createdAt,value
2023-03-10T00:06:35.139Z,4.5
2023-03-10T00:16:35.099Z,4.41
2023-03-10T00:26:35.057Z,4.17
2023-03-10T00:36:35.097Z,4.02
2023-03-10T00:46:35.121Z,3.86
2023-03-10T00:56:35.279Z,3.69
2023-03-10T01:06:35.092Z,3.79
2023-03-10T01:16:35.167Z,3.79
2023-03-10T01:26:35.126Z,4.04
2023-03-10T01:36:35.214Z,4.06
2023-03-10T01:46:35.181Z,3.98
2023-03-10T01:56:35.159Z,3.81
2023-03-10T02:06:35.048Z,3.48
2023-03-10T02:16:35.243Z,3.46
2023-03-10T02:26:35.068Z,3.42
2023-03-10T02:36:35.132Z,3.22
2023-03-10T02:46:35.062Z,2.92
2023-03-10T02:56:35.142Z,2.95
2023-03-10T03:06:35.092Z,2.75
2023-03-10T03:16:35.307Z,2.59
2023-03-10T03:26:35.072Z,2.51
2023-03-10T03:36:35.186Z,2.39
2023-03-10T03:46:35.069Z,2.12
2023-03-10T03:56:35.149Z,1.98
2023-03-10T04:06:35.118Z,2.03
2023-03-10T04:16:35.214Z,1.97
2023-03-10T04:26:35.092Z,1.88
2023-03-10T04:36:35.119Z,1.98
2023-03-10T04:46:35.193Z,1.85
2023-03-10T04:56:35.176Z,1.93
2023-03-10T05:06:35.109Z,2.1
2023-03-10T05:16:35.176Z,1.99
2023-03-10T05:26:35.140Z,2.06
2023-03-10T05:36:35.137Z,2.08
2023-03-10T05:46:35.149Z,2.13
2023-03-10T05:56:35.144Z,2.14
2023-03-10T06:06:35.131Z,2.27
2023-03-10T06:16:35.211Z,2.49
2023-03-10T06:26:35.113Z,2.81
2023-03-10T06:36:35.167Z,3.18
2023-03-10T06:46:35.151Z,3.56
2023-03-10T06:56:35.203Z,4.02
2023-03-10T07:06:35.121Z,4.46
2023-03-10T07:16:35.199Z,4.86
2023-03-10T07:26:35.131Z,5.37
2023-03-10T07:36:35.173Z,5.44
2023-03-10T07:46:35.163Z,5.55
2023-03-10T07:56:35.133Z,6
2023-03-10T08:06:35.597Z,6.38
2023-03-10T08:16:35.623Z,7.13
2023-03-10T08:26:35.551Z,7.57
2023-03-10T08:36:35.390Z,7.75
2023-03-10T08:46:35.244Z,7.83
2023-03-10T08:56:35.178Z,7.79
2023-03-10T09:06:35.114Z,7.95
2023-03-10T09:16:35.245Z,8.14
2023-03-10T09:26:35.087Z,8.57
2023-03-10T09:36:35.229Z,9.23
2023-03-10T09:46:35.098Z,10.13
2023-03-10T09:56:35.113Z,10.45
2023-03-10T10:06:35.084Z,10.33
2023-03-10T10:16:35.148Z,10.1
2023-03-10T10:26:35.073Z,10.5
2023-03-10T10:36:35.104Z,12.44
2023-03-10T10:46:35.203Z,14.09
2023-03-10T10:56:35.084Z,14.18
2023-03-10T11:06:35.072Z,14.73
2023-03-10T11:16:35.060Z,15.46
2023-03-10T11:26:35.094Z,15.49
2023-03-10T11:36:36.571Z,14.91
2023-03-10T11:46:35.063Z,14.67
2023-03-10T11:56:35.061Z,14.74
2023-03-10T12:06:35.080Z,16.03
2023-03-10T12:16:35.122Z,15.39
2023-03-10T12:26:35.007Z,15.88
2023-03-10T12:36:34.978Z,15.67
2023-03-10T12:46:35.006Z,16
2023-03-10T12:56:34.989Z,15.92
2023-03-10T13:06:34.925Z,16.07
2023-03-10T13:16:35.126Z,16.19
2023-03-10T13:26:34.932Z,16.17
2023-03-10T13:36:34.961Z,16.26
2023-03-10T13:46:34.921Z,16.35
2023-03-10T13:56:35.009Z,16.33
2023-03-10T14:06:34.888Z,16.36
2023-03-10T14:16:34.946Z,16.34
2023-03-10T14:26:34.903Z,16.34
2023-03-10T14:36:34.932Z,16.28
2023-03-10T14:46:35.186Z,16.22
2023-03-10T14:56:34.875Z,16.19
2023-03-10T15:06:34.830Z,16.06
2023-03-10T15:16:34.852Z,15.97
2023-03-10T15:26:34.823Z,15.94
2023-03-10T15:36:34.826Z,15.91
2023-03-10T15:46:34.924Z,15.54
2023-03-10T15:56:34.880Z,15.09
2023-03-10T16:06:34.816Z,14.94
2023-03-10T16:16:34.886Z,14.94
2023-03-10T16:26:34.789Z,14.56
2023-03-10T16:36:34.794Z,14.15
2023-03-10T16:46:34.736Z,13.71
2023-03-10T16:56:34.831Z,13.22
2023-03-10T17:06:34.762Z,12.73
2023-03-10T17:16:34.838Z,12.71
2023-03-10T17:26:34.799Z,12.98
2023-03-10T17:36:34.783Z,12.98
2023-03-10T17:46:34.756Z,12.83
2023-03-10T17:56:34.780Z,12.77
2023-03-10T18:06:34.716Z,12.58
2023-03-10T18:16:34.722Z,12.5
2023-03-10T18:26:34.746Z,12.39
2023-03-10T18:36:34.818Z,12.57
2023-03-10T18:46:34.711Z,12.1
2023-03-10T18:56:34.716Z,11.19
2023-03-10T19:06:34.765Z,10.74
2023-03-10T19:16:34.765Z,10.87
2023-03-10T19:26:34.665Z,11.45
2023-03-10T19:36:34.691Z,11.57
2023-03-10T19:46:34.730Z,11.31
2023-03-10T19:56:34.687Z,9.92
2023-03-10T20:06:34.699Z,9.54
2023-03-10T20:16:34.758Z,9.04
2023-03-10T20:26:34.693Z,8.71
2023-03-10T20:36:34.650Z,8.79
2023-03-10T20:46:34.621Z,8.84
2023-03-10T20:56:34.653Z,8.93
2023-03-10T21:06:34.633Z,8.56
2023-03-10T21:16:34.674Z,8.01
2023-03-10T21:26:34.630Z,7.57
2023-03-10T21:36:43.588Z,7.44
2023-03-10T21:46:34.666Z,7.08
2023-03-10T21:56:34.645Z,6.75
2023-03-10T22:06:34.645Z,6.58
2023-03-10T22:16:34.658Z,6.71
2023-03-10T22:26:34.637Z,6.89
2023-03-10T22:36:34.673Z,7.02
2023-03-10T22:46:34.640Z,6.92
2023-03-10T22:56:34.629Z,6.79
2023-03-10T23:06:34.617Z,6.7
2023-03-10T23:16:34.738Z,6.77
2023-03-10T23:26:34.625Z,6.62
2023-03-10T23:36:34.617Z,6.55
2023-03-10T23:46:34.612Z,6.21
2023-03-10T23:56:34.679Z,5.8
